Historyczne dane pomiarowe

Dodano dane terminowe – wersja testowa.

Dane z okresu 1951-2019

Wersja bazy: 1.34 [2019-03-16, lista zmian], aktualizacja planowana na 2019-04-15

Dane meteo z obszaru Polski uzyskane na podstawie danych udostępnionych przez Instytut Meteorologii i Gospodarki Wodnej – Państwowy Instytut Badawczy.

 

Wybierz Datę:    

       

TemperaturaWilgotnośćWiatrCiśnienieOpadyŚniegCzas trwania zjawisk
 Stacja t tx tn tng RH VA  wxwx mslp ppp RRR   cm mm wxwxwxwxwxwxwx
1964-01-17 -7.6 -4.8-21.0--- 8.0 6.3---- 0.6-- 13---------
1964-01-18 -4.2 -2.1 -5.9--- 8.0 5.0---- 0.1-- 16---------
1964-01-19 -9.8 -4.1-12.4--- 0.0 2.0---- 0.0-- 16---------
1964-01-20-10.8 -3.3-15.8--- 2.7 1.7---- 0.0-- 15---------
1964-01-21 -9.6 -3.5-18.7--- 0.0 3.0---- 0.0-- 15---------
1964-01-22 -2.8 0.5 -8.7--- 5.7 4.7---- 0.0-- 15---------
1964-01-23 -0.3 1.1 -0.7--- 8.0 5.3---- 0.0-- 13---------
1964-01-24 -4.5 -0.7 -8.3--- 3.0 4.7---- 0.0-- 13---------
1964-01-25 1.9 2.4 -4.1--- 8.0 10.0---- 1.0-- 13---------
1964-01-26 1.5 2.1 -0.6--- 8.0 4.7---- 0.4-- 16---------
1964-01-27 -1.6 3.7 -4.9--- 2.7 6.3---- 0.3-- 10---------
1964-01-28 -6.8 -1.9-12.9--- 0.3 4.7---- 0.0-- 10---------
1964-01-29 -6.3 -0.3 -9.1--- 2.0 4.0---- 0.0-- 10---------
1964-01-30 -7.2 -2.2-14.1--- 0.3 1.7---- 0.0-- 10---------
1964-01-31 -2.2 0.1 -7.6--- 8.0 4.0---- 0.3-- 10---------
1964-02-01 -0.3 3.3 -3.5--- 8.0 3.0---- 6.0-- 11---------
1964-02-02 3.1 5.0 1.4--- 8.0 9.0---- 1.6-- 9---------
1964-02-03 -1.3 2.8 -4.6--- 5.0 6.3---- 0.3-- 5---------
1964-02-04 1.2 2.4 -3.1--- 8.0 5.3---- 4.2-- 4---------
1964-02-05 -0.1 3.2 -1.8--- 6.3 7.0---- 0.8-- 5---------
1964-02-06 -5.6 -1.1 -7.4--- 7.7 7.7---- 1.2-- 7---------
1964-02-07 -5.2 -4.6 -7.1--- 8.0 9.3---- 0.8-- 14---------
1964-02-08 -0.7 1.1 -7.0--- 8.0 6.7---- 10.8-- 20---------
1964-02-09 0.2 1.8 -0.8--- 8.0 6.7---- 5.0-- 14---------
1964-02-10 -5.2 -0.5 -5.9--- 8.0 3.3---- 5.2-- 17---------
1964-02-11 -1.2 0.1 -7.4--- 5.3 6.3---- 4.0-- 25---------
1964-02-12 -2.2 -0.4 -4.3--- 8.0 2.7---- 4.5-- 27---------
1964-02-13 -8.4 -1.8-10.8--- 8.0 8.7---- 0.9-- 32---------
1964-02-14-11.5 -5.4-16.3--- 3.0 5.7---- 0.0-- 38---------
1964-02-15-16.2 -5.2-25.8--- 0.3 2.3---- 0.0-- 37---------
239.1 ms

 

Źródłem pochodzenia danych jest Instytut Meteorologii i Gospodarki Wodnej – Państwowy Instytut Badawczy. Dane Instytutu Meteorologii i Gospodarki Wodnej – Państwowego Instytutu Badawczego zostały przetworzone.

Dane źródłowe można odnaleźć na stronie https://dane.imgw.pl